createdAt,value
2023-05-21T00:01:45.822Z,8.70
2023-05-21T00:04:13.412Z,8.60
2023-05-21T00:06:40.720Z,8.55
2023-05-21T00:09:08.188Z,9.60
2023-05-21T00:11:36.017Z,9.02
2023-05-21T00:14:04.748Z,8.90
2023-05-21T00:16:32.038Z,8.68
2023-05-21T00:18:59.422Z,9.18
2023-05-21T00:21:26.789Z,8.68
2023-05-21T00:23:57.114Z,9.45
2023-05-21T00:26:24.382Z,8.87
2023-05-21T00:28:51.704Z,8.60
2023-05-21T00:31:20.484Z,8.68
2023-05-21T00:33:47.783Z,9.60
2023-05-21T00:36:15.454Z,8.50
2023-05-21T00:38:46.447Z,8.83
2023-05-21T00:41:13.796Z,8.23
2023-05-21T00:43:42.130Z,8.27
2023-05-21T00:46:13.930Z,8.73
2023-05-21T00:48:43.880Z,8.90
2023-05-21T00:51:11.132Z,8.60
2023-05-21T00:53:38.838Z,8.40
2023-05-21T00:56:07.183Z,8.93
2023-05-21T00:58:35.200Z,8.52
2023-05-21T01:01:07.040Z,9.02
2023-05-21T01:03:38.846Z,8.43
2023-05-21T01:06:09.313Z,8.70
2023-05-21T01:08:37.799Z,8.35
2023-05-21T01:11:06.533Z,8.27
2023-05-21T01:13:36.863Z,9.15
2023-05-21T01:16:07.040Z,8.33
2023-05-21T01:18:40.254Z,9.60
2023-05-21T01:21:09.872Z,9.18
2023-05-21T01:23:38.568Z,9.00
2023-05-21T01:26:07.425Z,8.98
2023-05-21T01:28:34.841Z,9.40
2023-05-21T01:31:12.010Z,9.45
2023-05-21T01:33:45.268Z,9.00
2023-05-21T01:36:17.409Z,8.85
2023-05-21T01:38:53.293Z,8.32
2023-05-21T01:41:22.207Z,8.43
2023-05-21T01:43:49.838Z,8.30
2023-05-21T01:46:22.076Z,9.07
2023-05-21T01:48:51.106Z,8.50
2023-05-21T01:51:19.214Z,8.35
2023-05-21T01:53:47.851Z,8.40
2023-05-21T01:56:16.150Z,8.05
2023-05-21T01:58:44.152Z,8.50
2023-05-21T02:01:12.134Z,8.30
2023-05-21T02:03:39.429Z,8.35
2023-05-21T02:06:06.725Z,8.40
2023-05-21T02:08:34.037Z,8.48
2023-05-21T02:11:02.807Z,8.60
2023-05-21T02:13:30.221Z,8.05
2023-05-21T02:15:57.609Z,8.10
2023-05-21T02:18:26.539Z,8.50
2023-05-21T02:20:53.749Z,8.32
2023-05-21T02:23:21.030Z,8.10
2023-05-21T02:25:48.296Z,8.25
2023-05-21T02:28:16.919Z,8.23
2023-05-21T02:30:44.161Z,8.53
2023-05-21T02:33:14.450Z,8.00
2023-05-21T02:35:41.933Z,7.95
2023-05-21T02:38:09.385Z,8.10
2023-05-21T02:40:36.826Z,8.32
2023-05-21T02:43:04.040Z,8.33
2023-05-21T02:45:32.715Z,8.57
2023-05-21T02:47:59.998Z,8.15
2023-05-21T02:50:27.202Z,8.45
2023-05-21T02:52:54.407Z,7.75
2023-05-21T02:55:23.060Z,8.40
2023-05-21T02:57:50.320Z,8.73
2023-05-21T03:00:17.876Z,8.40
2023-05-21T03:02:46.643Z,8.02
2023-05-21T03:05:13.912Z,8.00
2023-05-21T03:07:42.104Z,8.60
2023-05-21T03:10:10.000Z,8.15
2023-05-21T03:12:38.159Z,8.38
2023-05-21T03:15:06.158Z,8.43
2023-05-21T03:17:34.193Z,8.27
2023-05-21T03:20:05.935Z,8.17
2023-05-21T03:22:33.188Z,7.93
2023-05-21T03:25:00.576Z,8.13
2023-05-21T03:27:28.000Z,8.23
2023-05-21T03:29:55.963Z,8.07
2023-05-21T03:32:23.454Z,8.40
2023-05-21T03:34:50.827Z,8.60
2023-05-21T03:37:19.512Z,8.98
2023-05-21T03:39:46.896Z,8.88
2023-05-21T03:42:14.382Z,8.57
2023-05-21T03:44:41.633Z,8.77
2023-05-21T03:47:08.917Z,9.77
2023-05-21T03:49:36.392Z,9.95
2023-05-21T03:52:03.791Z,9.88
2023-05-21T03:54:32.501Z,9.15
2023-05-21T03:57:00.020Z,9.60
2023-05-21T03:59:27.314Z,9.35
2023-05-21T04:01:54.566Z,9.05
2023-05-21T04:04:21.856Z,9.90
2023-05-21T04:06:49.756Z,9.90
2023-05-21T04:09:17.001Z,8.87
2023-05-21T04:11:45.681Z,8.98
2023-05-21T04:14:13.044Z,10.05
2023-05-21T04:16:40.258Z,9.80
2023-05-21T04:19:07.579Z,9.68
2023-05-21T04:21:34.855Z,9.30
2023-05-21T04:24:02.205Z,9.60
2023-05-21T04:26:29.839Z,9.13
2023-05-21T04:28:59.505Z,8.90
2023-05-21T04:31:26.760Z,9.10
2023-05-21T04:33:54.132Z,9.43
2023-05-21T04:36:21.384Z,9.93
2023-05-21T04:38:48.951Z,9.30
2023-05-21T04:41:19.093Z,9.00
2023-05-21T04:43:46.446Z,8.98
2023-05-21T04:46:15.183Z,9.23
2023-05-21T04:48:42.457Z,9.32
2023-05-21T04:51:09.733Z,10.00
2023-05-21T04:53:37.018Z,10.00
2023-05-21T04:56:04.495Z,13.77
2023-05-21T04:58:34.410Z,9.33
2023-05-21T05:01:03.558Z,9.70
2023-05-21T05:03:32.340Z,9.80
2023-05-21T05:05:59.707Z,9.77
2023-05-21T05:08:26.927Z,9.55
2023-05-21T05:10:54.121Z,10.43
2023-05-21T05:13:21.402Z,10.13
2023-05-21T05:15:50.218Z,9.23
2023-05-21T05:18:18.231Z,10.23
2023-05-21T05:20:47.857Z,9.80
2023-05-21T05:23:15.434Z,9.23
2023-05-21T05:25:42.706Z,9.68
2023-05-21T05:28:09.983Z,9.60
2023-05-21T05:30:37.345Z,9.65
2023-05-21T05:33:04.843Z,9.52
2023-05-21T05:35:32.179Z,9.33
2023-05-21T05:38:00.854Z,9.82
2023-05-21T05:40:28.044Z,9.27
2023-05-21T05:42:55.242Z,9.63
2023-05-21T05:45:22.468Z,9.45
2023-05-21T05:47:50.059Z,8.70
2023-05-21T05:50:17.296Z,9.57
2023-05-21T05:52:44.588Z,9.45
2023-05-21T05:55:13.409Z,9.07
2023-05-21T05:57:40.906Z,9.13
2023-05-21T06:00:10.939Z,8.23
2023-05-21T06:02:38.336Z,8.63
2023-05-21T06:05:07.088Z,8.65
2023-05-21T06:07:34.455Z,7.82
2023-05-21T06:10:01.766Z,8.27
2023-05-21T06:12:30.523Z,8.57
2023-05-21T06:14:57.848Z,8.20
2023-05-21T06:17:25.119Z,7.93
2023-05-21T06:19:52.424Z,8.43
2023-05-21T06:22:19.610Z,7.70
2023-05-21T06:24:46.905Z,8.40
2023-05-21T06:27:14.273Z,8.48
2023-05-21T06:29:42.940Z,7.90
2023-05-21T06:32:10.188Z,7.88
2023-05-21T06:34:37.484Z,8.10
2023-05-21T06:37:05.069Z,7.90
2023-05-21T06:39:32.324Z,8.02
2023-05-21T06:41:59.498Z,8.18
2023-05-21T06:44:26.794Z,8.55
2023-05-21T06:46:55.581Z,7.95
2023-05-21T06:49:22.869Z,7.97
2023-05-21T06:51:50.228Z,7.55
2023-05-21T06:54:17.637Z,7.35
2023-05-21T06:56:44.869Z,7.93
2023-05-21T06:59:12.180Z,7.95
2023-05-21T07:01:42.578Z,7.67
2023-05-21T07:04:11.581Z,7.90
2023-05-21T07:06:39.340Z,7.20
2023-05-21T07:09:06.719Z,8.02
2023-05-21T07:11:36.263Z,7.40
2023-05-21T07:14:04.120Z,7.33
2023-05-21T07:16:31.387Z,7.78
2023-05-21T07:18:58.684Z,8.32
2023-05-21T07:21:27.493Z,7.95
2023-05-21T07:23:54.755Z,8.27
2023-05-21T07:26:22.117Z,7.70
2023-05-21T07:28:49.402Z,8.50
2023-05-21T07:31:16.794Z,7.72
2023-05-21T07:33:44.072Z,7.47
2023-05-21T07:36:11.437Z,7.90
2023-05-21T07:38:40.597Z,7.73
2023-05-21T07:41:07.912Z,7.65
2023-05-21T07:43:36.439Z,7.75
2023-05-21T07:46:03.681Z,7.30
2023-05-21T07:48:32.164Z,8.30
2023-05-21T07:51:01.081Z,7.30
2023-05-21T07:53:32.335Z,7.97
2023-05-21T07:56:01.124Z,8.27
2023-05-21T07:58:28.457Z,6.95
2023-05-21T08:00:56.029Z,7.55
2023-05-21T08:03:23.541Z,7.60
2023-05-21T08:05:51.098Z,7.60
2023-05-21T08:08:19.241Z,7.63
2023-05-21T08:10:47.866Z,7.25
2023-05-21T08:13:17.336Z,7.15
2023-05-21T08:15:44.621Z,7.17
2023-05-21T08:18:12.092Z,6.85
2023-05-21T08:20:39.387Z,7.00
2023-05-21T08:23:06.612Z,6.18
2023-05-21T08:25:33.916Z,6.15
2023-05-21T08:28:01.245Z,5.93
2023-05-21T08:30:29.980Z,6.68
2023-05-21T08:32:57.369Z,6.43
2023-05-21T08:35:24.688Z,6.10
2023-05-21T08:37:51.912Z,5.60
2023-05-21T08:40:19.497Z,5.70
2023-05-21T08:42:48.452Z,5.88
2023-05-21T08:45:20.730Z,5.70
2023-05-21T08:47:56.143Z,6.13
2023-05-21T08:50:26.316Z,5.72
2023-05-21T08:52:55.389Z,5.53
2023-05-21T08:55:23.808Z,5.68
2023-05-21T08:57:51.190Z,6.05
2023-05-21T09:00:20.822Z,5.03
2023-05-21T09:02:50.435Z,5.47
2023-05-21T09:05:18.375Z,5.60
2023-05-21T09:07:52.525Z,6.10
2023-05-21T09:10:23.937Z,5.70
2023-05-21T09:12:51.471Z,6.18
2023-05-21T09:15:19.050Z,5.93
2023-05-21T09:17:48.064Z,6.20
2023-05-21T09:20:17.667Z,6.28
2023-05-21T09:22:46.101Z,6.30
2023-05-21T09:25:16.384Z,6.03
2023-05-21T09:27:43.982Z,5.78
2023-05-21T09:30:12.997Z,6.03
2023-05-21T09:32:41.573Z,6.22
2023-05-21T09:35:10.057Z,6.35
2023-05-21T09:37:44.087Z,5.97
2023-05-21T09:40:13.385Z,6.22
2023-05-21T09:42:41.322Z,5.90
2023-05-21T09:45:09.890Z,5.72
2023-05-21T09:47:41.545Z,6.28
2023-05-21T09:50:10.226Z,6.28
2023-05-21T09:52:38.306Z,6.35
2023-05-21T09:55:11.958Z,6.23
2023-05-21T09:57:42.703Z,6.40
2023-05-21T10:00:18.269Z,6.35
2023-05-21T10:02:47.466Z,6.60
2023-05-21T10:05:16.705Z,6.32
2023-05-21T10:07:50.759Z,6.00
2023-05-21T10:10:21.969Z,5.35
2023-05-21T10:12:59.014Z,7.07
2023-05-21T10:15:30.613Z,5.68
2023-05-21T10:17:59.130Z,6.07
2023-05-21T10:20:26.603Z,6.57
2023-05-21T10:22:54.619Z,6.30
2023-05-21T10:25:23.764Z,7.10
2023-05-21T10:27:51.051Z,6.10
2023-05-21T10:30:18.805Z,6.10
2023-05-21T10:32:49.121Z,5.37
2023-05-21T10:35:17.530Z,6.55
2023-05-21T10:37:45.611Z,6.60
2023-05-21T10:40:13.859Z,6.38
2023-05-21T10:43:16.155Z,6.40
2023-05-21T10:46:15.414Z,7.20
2023-05-21T10:48:58.577Z,6.25
2023-05-21T10:51:29.205Z,6.53
2023-05-21T10:54:16.643Z,6.28
2023-05-21T10:56:48.532Z,6.00
2023-05-21T10:59:25.957Z,6.63
2023-05-21T11:01:54.298Z,6.43
2023-05-21T11:04:27.268Z,5.95
2023-05-21T11:06:54.628Z,6.00
2023-05-21T11:09:21.988Z,6.45
2023-05-21T11:11:51.433Z,6.57
2023-05-21T11:14:32.770Z,6.82
2023-05-21T11:17:00.202Z,6.82
2023-05-21T11:19:38.559Z,6.55
2023-05-21T11:22:08.505Z,6.40
2023-05-21T11:24:39.734Z,6.60
2023-05-21T11:27:07.385Z,6.40
2023-05-21T11:29:40.930Z,7.35
2023-05-21T11:32:12.191Z,6.88
2023-05-21T11:34:41.119Z,6.65
2023-05-21T11:37:40.858Z,6.50
2023-05-21T11:40:23.978Z,6.88
2023-05-21T11:42:52.863Z,6.45
2023-05-21T11:45:22.932Z,5.75
2023-05-21T11:47:51.656Z,6.50
2023-05-21T11:50:19.131Z,6.57
2023-05-21T11:52:46.525Z,6.75
2023-05-21T11:55:15.899Z,6.72
2023-05-21T11:57:48.135Z,6.60
2023-05-21T12:00:16.668Z,6.75
2023-05-21T12:02:51.157Z,6.43
2023-05-21T12:05:18.625Z,6.70
2023-05-21T12:07:52.336Z,7.10
2023-05-21T12:10:24.162Z,6.28
2023-05-21T12:12:56.503Z,7.13
2023-05-21T12:15:26.607Z,7.13
2023-05-21T12:17:56.251Z,6.18
2023-05-21T12:20:24.020Z,7.13
2023-05-21T12:22:51.398Z,7.57
2023-05-21T12:25:20.194Z,8.07
2023-05-21T12:27:48.586Z,6.93
2023-05-21T12:30:16.169Z,7.10
2023-05-21T12:32:46.610Z,8.02
2023-05-21T12:35:24.897Z,7.65
2023-05-21T12:37:52.766Z,7.53
2023-05-21T12:40:20.462Z,7.10
2023-05-21T12:42:47.923Z,6.78
2023-05-21T12:45:16.169Z,7.65
2023-05-21T12:47:49.150Z,6.60
2023-05-21T12:50:21.244Z,7.07
2023-05-21T12:52:49.978Z,6.60
2023-05-21T12:55:17.601Z,6.28
2023-05-21T12:57:44.912Z,6.57
2023-05-21T13:00:14.367Z,6.88
2023-05-21T13:02:43.414Z,7.40
2023-05-21T13:05:19.660Z,6.40
2023-05-21T13:07:47.656Z,6.47
2023-05-21T13:10:17.055Z,6.10
2023-05-21T13:12:44.936Z,6.00
2023-05-21T13:15:12.451Z,6.40
2023-05-21T13:17:39.884Z,5.87
2023-05-21T13:20:09.339Z,6.35
2023-05-21T13:22:46.848Z,6.68
2023-05-21T13:25:19.691Z,6.32
2023-05-21T13:27:47.950Z,6.13
2023-05-21T13:30:15.293Z,5.43
2023-05-21T13:32:43.239Z,6.25
2023-05-21T13:35:12.194Z,6.45
2023-05-21T13:37:40.533Z,6.38
2023-05-21T13:40:11.164Z,6.40
2023-05-21T13:42:40.076Z,6.37
2023-05-21T13:45:09.271Z,6.20
2023-05-21T13:47:39.287Z,6.53
2023-05-21T13:50:08.796Z,5.75
2023-05-21T13:52:36.479Z,6.25
2023-05-21T13:55:04.173Z,6.13
2023-05-21T13:57:31.465Z,5.60
2023-05-21T14:00:00.970Z,6.40
2023-05-21T14:02:28.454Z,6.30
2023-05-21T14:04:55.887Z,5.88
2023-05-21T14:07:23.222Z,5.70
2023-05-21T14:09:50.557Z,6.03
2023-05-21T14:12:17.828Z,5.95
2023-05-21T14:14:45.054Z,6.38
2023-05-21T14:17:13.694Z,6.25
2023-05-21T14:19:41.372Z,6.57
2023-05-21T14:22:08.568Z,6.13
2023-05-21T14:24:35.826Z,5.95
2023-05-21T14:27:03.106Z,6.72
2023-05-21T14:29:30.286Z,6.35
2023-05-21T14:31:57.508Z,6.00
2023-05-21T14:34:26.185Z,6.15
2023-05-21T14:36:53.353Z,6.40
2023-05-21T14:39:20.960Z,6.13
2023-05-21T14:41:48.288Z,6.03
2023-05-21T14:44:15.564Z,6.03
2023-05-21T14:46:42.821Z,5.88
2023-05-21T14:49:12.009Z,5.82
2023-05-21T14:51:40.909Z,6.32
2023-05-21T14:54:08.082Z,6.28
2023-05-21T14:56:35.500Z,5.50
2023-05-21T14:59:26.787Z,5.35
2023-05-21T15:02:05.251Z,6.10
2023-05-21T15:04:40.313Z,5.95
2023-05-21T15:07:10.860Z,5.53
2023-05-21T15:09:38.082Z,6.13
2023-05-21T15:12:05.681Z,5.72
2023-05-21T15:14:32.904Z,5.82
2023-05-21T15:17:00.156Z,5.95
2023-05-21T15:19:27.498Z,6.22
2023-05-21T15:21:54.832Z,6.27
2023-05-21T15:24:23.623Z,5.57
2023-05-21T15:26:50.890Z,5.60
2023-05-21T15:29:18.212Z,5.68
2023-05-21T15:31:45.535Z,6.13
2023-05-21T15:34:13.818Z,5.73
2023-05-21T15:36:41.180Z,6.10
2023-05-21T15:39:08.355Z,6.20
2023-05-21T15:41:39.574Z,5.97
2023-05-21T15:44:06.801Z,6.03
2023-05-21T15:46:34.060Z,5.93
2023-05-21T15:49:01.386Z,5.65
2023-05-21T15:51:29.044Z,5.68
2023-05-21T15:53:56.246Z,5.70
2023-05-21T15:56:23.550Z,6.07
2023-05-21T15:58:52.278Z,6.50
2023-05-21T16:01:19.534Z,5.78
2023-05-21T16:03:46.798Z,6.32
2023-05-21T16:06:14.086Z,5.45
2023-05-21T16:08:41.308Z,6.13
2023-05-21T16:11:08.565Z,5.50
2023-05-21T16:13:35.936Z,6.15
2023-05-21T16:16:04.934Z,6.10
2023-05-21T16:18:32.200Z,5.68
2023-05-21T16:20:59.498Z,5.53
2023-05-21T16:23:26.711Z,6.17
2023-05-21T16:25:53.878Z,6.15
2023-05-21T16:28:21.172Z,5.70
2023-05-21T16:30:48.332Z,5.90
2023-05-21T16:33:17.281Z,5.60
2023-05-21T16:35:44.793Z,5.20
2023-05-21T16:38:12.004Z,5.38
2023-05-21T16:40:40.488Z,5.60
2023-05-21T16:43:08.676Z,5.40
2023-05-21T16:45:39.537Z,5.95
2023-05-21T16:48:07.066Z,5.40
2023-05-21T16:50:36.038Z,5.38
2023-05-21T16:53:03.476Z,5.90
2023-05-21T16:55:31.857Z,5.75
2023-05-21T16:57:59.131Z,5.60
2023-05-21T17:00:26.399Z,4.97
2023-05-21T17:02:54.122Z,5.68
2023-05-21T17:05:21.702Z,5.70
2023-05-21T17:07:50.465Z,5.63
2023-05-21T17:10:18.741Z,5.72
2023-05-21T17:12:46.259Z,4.97
2023-05-21T17:15:13.441Z,5.80
2023-05-21T17:17:40.843Z,6.40
2023-05-21T17:20:09.289Z,5.85
2023-05-21T17:22:36.492Z,6.05
2023-05-21T17:25:06.156Z,5.53
2023-05-21T17:27:33.433Z,5.28
2023-05-21T17:30:00.639Z,5.32
2023-05-21T17:32:28.185Z,5.75
2023-05-21T17:34:55.478Z,5.90
2023-05-21T17:37:22.656Z,5.93
2023-05-21T17:39:49.809Z,6.03
2023-05-21T17:42:19.264Z,7.03
2023-05-21T17:44:46.530Z,6.63
2023-05-21T17:47:13.875Z,7.25
2023-05-21T17:49:41.528Z,6.70
2023-05-21T17:52:08.786Z,6.40
2023-05-21T17:54:36.106Z,6.85
2023-05-21T17:57:03.533Z,6.40
2023-05-21T17:59:32.830Z,6.30
2023-05-21T18:02:01.629Z,6.50
2023-05-21T18:04:29.217Z,6.03
2023-05-21T18:06:56.595Z,6.45
2023-05-21T18:09:24.086Z,6.32
2023-05-21T18:11:51.364Z,6.47
2023-05-21T18:14:18.569Z,6.23
2023-05-21T18:16:47.229Z,6.70
2023-05-21T18:19:14.522Z,7.35
2023-05-21T18:21:41.757Z,9.63
2023-05-21T18:24:09.156Z,12.25
2023-05-21T18:26:36.431Z,10.30
2023-05-21T18:29:06.032Z,9.05
2023-05-21T18:31:33.324Z,8.52
2023-05-21T18:34:02.097Z,8.35
2023-05-21T18:36:29.344Z,7.20
2023-05-21T18:38:57.714Z,7.07
2023-05-21T18:41:24.999Z,6.78
2023-05-21T18:43:52.359Z,6.80
2023-05-21T18:46:20.014Z,6.35
2023-05-21T18:48:48.814Z,6.45
2023-05-21T18:51:17.564Z,6.57
2023-05-21T18:53:44.847Z,6.57
2023-05-21T18:56:12.172Z,6.65
2023-05-21T18:58:39.378Z,6.53
2023-05-21T19:01:06.724Z,7.13
2023-05-21T19:03:33.994Z,6.50
2023-05-21T19:06:01.339Z,6.88
2023-05-21T19:08:30.063Z,7.47
2023-05-21T19:10:57.320Z,7.28
2023-05-21T19:13:24.586Z,7.55
2023-05-21T19:15:51.979Z,7.23
2023-05-21T19:18:19.352Z,7.28
2023-05-21T19:20:46.555Z,6.97
2023-05-21T19:23:14.120Z,7.25
2023-05-21T19:25:42.820Z,6.45
2023-05-21T19:28:10.121Z,6.83
2023-05-21T19:30:37.587Z,7.90
2023-05-21T19:33:05.286Z,7.97
2023-05-21T19:35:32.469Z,7.30
2023-05-21T19:38:01.756Z,7.97
2023-05-21T19:40:30.984Z,7.03
2023-05-21T19:42:59.694Z,7.53
2023-05-21T19:45:26.972Z,7.82
2023-05-21T19:47:54.264Z,7.47
2023-05-21T19:50:21.510Z,7.65
2023-05-21T19:52:48.805Z,7.73
2023-05-21T19:55:20.429Z,7.90
2023-05-21T19:57:47.806Z,7.47
2023-05-21T20:00:17.862Z,7.75
2023-05-21T20:02:45.327Z,7.53
2023-05-21T20:05:12.602Z,7.97
2023-05-21T20:07:40.086Z,7.18
2023-05-21T20:10:08.916Z,7.30
2023-05-21T20:12:36.839Z,7.88
2023-05-21T20:15:05.724Z,7.85
2023-05-21T20:17:34.472Z,8.00
2023-05-21T20:20:07.494Z,8.20
2023-05-21T20:22:34.765Z,8.10
2023-05-21T20:25:03.963Z,8.38
2023-05-21T20:27:31.267Z,8.18
2023-05-21T20:29:58.527Z,7.87
2023-05-21T20:32:25.868Z,7.88
2023-05-21T20:35:02.731Z,7.57
2023-05-21T20:37:32.653Z,7.28
2023-05-21T20:40:00.037Z,7.45
2023-05-21T20:42:28.740Z,7.40
2023-05-21T20:44:58.981Z,7.60
2023-05-21T20:47:30.054Z,7.43
2023-05-21T20:49:59.785Z,7.72
2023-05-21T20:52:27.109Z,7.78
2023-05-21T20:54:59.780Z,7.60
2023-05-21T20:57:27.619Z,7.70
2023-05-21T20:59:55.035Z,8.15
2023-05-21T21:02:23.098Z,7.60
2023-05-21T21:04:51.053Z,7.57
2023-05-21T21:07:20.011Z,7.73
2023-05-21T21:09:47.448Z,7.93
2023-05-21T21:12:26.186Z,8.15
2023-05-21T21:14:54.199Z,7.40
2023-05-21T21:17:21.648Z,7.47
2023-05-21T21:19:48.908Z,7.23
2023-05-21T21:22:16.479Z,7.57
2023-05-21T21:24:45.821Z,8.18
2023-05-21T21:27:13.340Z,7.60
2023-05-21T21:29:40.607Z,8.05
2023-05-21T21:32:08.290Z,7.60
2023-05-21T21:34:35.617Z,7.63
2023-05-21T21:37:02.825Z,7.70
2023-05-21T21:39:30.040Z,7.82
2023-05-21T21:41:58.730Z,7.78
2023-05-21T21:44:26.107Z,7.77
2023-05-21T21:46:53.447Z,7.95
2023-05-21T21:49:20.657Z,8.32
2023-05-21T21:51:48.489Z,7.88
2023-05-21T21:54:15.834Z,7.90
2023-05-21T21:56:43.012Z,7.50
2023-05-21T21:59:11.629Z,7.53
2023-05-21T22:01:39.035Z,7.80
2023-05-21T22:04:06.292Z,7.93
2023-05-21T22:06:33.563Z,7.88
2023-05-21T22:09:01.364Z,7.83
2023-05-21T22:11:28.651Z,8.57
2023-05-21T22:13:56.271Z,8.00
2023-05-21T22:16:25.086Z,8.38
2023-05-21T22:18:54.306Z,8.15
2023-05-21T22:21:21.744Z,7.93
2023-05-21T22:23:49.017Z,8.02
2023-05-21T22:26:16.232Z,8.60
2023-05-21T22:28:43.417Z,8.15
2023-05-21T22:31:10.794Z,7.97
2023-05-21T22:33:39.425Z,8.03
2023-05-21T22:36:07.195Z,8.48
2023-05-21T22:38:34.509Z,8.27
2023-05-21T22:41:01.933Z,8.23
2023-05-21T22:43:29.286Z,8.18
2023-05-21T22:45:56.594Z,7.67
2023-05-21T22:48:23.978Z,7.78
2023-05-21T22:50:53.651Z,8.02
2023-05-21T22:53:21.117Z,7.93
2023-05-21T22:55:48.339Z,7.97
2023-05-21T22:58:15.721Z,7.87
2023-05-21T23:00:46.034Z,7.57
2023-05-21T23:03:13.502Z,8.05
2023-05-21T23:05:41.025Z,7.47
2023-05-21T23:08:09.930Z,8.00
2023-05-21T23:10:37.439Z,7.30
2023-05-21T23:13:04.945Z,7.75
2023-05-21T23:15:32.252Z,8.05
2023-05-21T23:18:00.538Z,7.15
2023-05-21T23:20:27.949Z,7.75
2023-05-21T23:22:55.369Z,7.60
2023-05-21T23:25:24.027Z,7.50
2023-05-21T23:27:51.243Z,7.40
2023-05-21T23:30:18.676Z,7.60
2023-05-21T23:32:46.584Z,7.60
2023-05-21T23:35:14.564Z,7.67
2023-05-21T23:37:41.923Z,7.90
2023-05-21T23:40:10.024Z,7.30
2023-05-21T23:42:38.605Z,7.47
2023-05-21T23:45:06.835Z,7.55
2023-05-21T23:47:34.045Z,7.17
2023-05-21T23:50:01.312Z,7.18
2023-05-21T23:52:28.574Z,7.03
2023-05-21T23:54:57.590Z,6.88
2023-05-21T23:57:24.847Z,6.85
2023-05-21T23:59:53.446Z,7.20
